sensor_id;sensor_type;location;lat;lon;timestamp;P1;durP1;ratioP1;P2;durP2;ratioP2
31786;SDS011;18356;52.380;9.820;2023-03-04T00:01:10;22.03;;;4.93;;
31786;SDS011;18356;52.380;9.820;2023-03-04T00:03:36;33.43;;;5.03;;
31786;SDS011;18356;52.380;9.820;2023-03-04T00:06:02;31.40;;;4.83;;
31786;SDS011;18356;52.380;9.820;2023-03-04T00:08:29;27.20;;;5.00;;
31786;SDS011;18356;52.380;9.820;2023-03-04T00:10:55;25.93;;;4.40;;
31786;SDS011;18356;52.380;9.820;2023-03-04T00:13:21;23.27;;;5.10;;
31786;SDS011;18356;52.380;9.820;2023-03-04T00:15:48;20.93;;;4.07;;
31786;SDS011;18356;52.380;9.820;2023-03-04T00:18:14;28.00;;;4.30;;
31786;SDS011;18356;52.380;9.820;2023-03-04T00:20:40;30.20;;;4.53;;
31786;SDS011;18356;52.380;9.820;2023-03-04T00:23:06;30.77;;;4.63;;
31786;SDS011;18356;52.380;9.820;2023-03-04T00:25:32;32.93;;;5.23;;
31786;SDS011;18356;52.380;9.820;2023-03-04T00:27:58;36.90;;;4.93;;
31786;SDS011;18356;52.380;9.820;2023-03-04T00:30:25;31.30;;;5.30;;
31786;SDS011;18356;52.380;9.820;2023-03-04T00:32:51;29.60;;;5.73;;
31786;SDS011;18356;52.380;9.820;2023-03-04T00:35:17;28.10;;;5.00;;
31786;SDS011;18356;52.380;9.820;2023-03-04T00:37:43;31.40;;;4.90;;
31786;SDS011;18356;52.380;9.820;2023-03-04T00:40:09;26.70;;;5.50;;
31786;SDS011;18356;52.380;9.820;2023-03-04T00:42:35;28.10;;;5.17;;
31786;SDS011;18356;52.380;9.820;2023-03-04T00:45:01;27.43;;;5.27;;
31786;SDS011;18356;52.380;9.820;2023-03-04T00:47:27;20.53;;;4.83;;
31786;SDS011;18356;52.380;9.820;2023-03-04T00:49:53;26.90;;;5.97;;
31786;SDS011;18356;52.380;9.820;2023-03-04T00:52:19;31.47;;;6.27;;
31786;SDS011;18356;52.380;9.820;2023-03-04T00:54:45;28.37;;;5.60;;
31786;SDS011;18356;52.380;9.820;2023-03-04T00:57:11;31.70;;;6.27;;
31786;SDS011;18356;52.380;9.820;2023-03-04T00:59:37;26.87;;;6.00;;
31786;SDS011;18356;52.380;9.820;2023-03-04T01:02:04;25.17;;;4.50;;
31786;SDS011;18356;52.380;9.820;2023-03-04T01:04:30;28.90;;;5.73;;
31786;SDS011;18356;52.380;9.820;2023-03-04T01:06:56;29.70;;;4.87;;
31786;SDS011;18356;52.380;9.820;2023-03-04T01:09:22;19.53;;;4.43;;
31786;SDS011;18356;52.380;9.820;2023-03-04T01:11:50;28.30;;;5.20;;
31786;SDS011;18356;52.380;9.820;2023-03-04T01:14:16;32.30;;;4.97;;
31786;SDS011;18356;52.380;9.820;2023-03-04T01:16:42;30.73;;;5.03;;
31786;SDS011;18356;52.380;9.820;2023-03-04T01:19:08;22.73;;;5.10;;
31786;SDS011;18356;52.380;9.820;2023-03-04T01:21:34;32.67;;;4.83;;
31786;SDS011;18356;52.380;9.820;2023-03-04T01:24:00;30.17;;;5.03;;
31786;SDS011;18356;52.380;9.820;2023-03-04T01:26:26;27.57;;;5.60;;
31786;SDS011;18356;52.380;9.820;2023-03-04T01:28:52;26.47;;;4.53;;
31786;SDS011;18356;52.380;9.820;2023-03-04T01:31:18;23.93;;;4.47;;
31786;SDS011;18356;52.380;9.820;2023-03-04T01:33:44;25.70;;;4.60;;
31786;SDS011;18356;52.380;9.820;2023-03-04T01:36:10;29.23;;;4.73;;
31786;SDS011;18356;52.380;9.820;2023-03-04T01:38:36;24.63;;;4.57;;
31786;SDS011;18356;52.380;9.820;2023-03-04T01:41:02;32.43;;;4.50;;
31786;SDS011;18356;52.380;9.820;2023-03-04T01:43:29;23.23;;;4.20;;
31786;SDS011;18356;52.380;9.820;2023-03-04T01:45:55;25.93;;;3.93;;
31786;SDS011;18356;52.380;9.820;2023-03-04T01:48:26;27.83;;;5.23;;
31786;SDS011;18356;52.380;9.820;2023-03-04T01:50:54;25.97;;;4.30;;
31786;SDS011;18356;52.380;9.820;2023-03-04T01:53:21;25.93;;;4.33;;
31786;SDS011;18356;52.380;9.820;2023-03-04T01:55:48;25.40;;;4.47;;
31786;SDS011;18356;52.380;9.820;2023-03-04T01:58:14;21.97;;;4.07;;
31786;SDS011;18356;52.380;9.820;2023-03-04T02:00:40;23.87;;;4.43;;
31786;SDS011;18356;52.380;9.820;2023-03-04T02:03:08;18.57;;;3.90;;
31786;SDS011;18356;52.380;9.820;2023-03-04T02:05:36;24.33;;;4.30;;
31786;SDS011;18356;52.380;9.820;2023-03-04T02:08:03;30.77;;;4.20;;
31786;SDS011;18356;52.380;9.820;2023-03-04T02:10:29;27.33;;;4.33;;
31786;SDS011;18356;52.380;9.820;2023-03-04T02:12:55;20.47;;;4.23;;
31786;SDS011;18356;52.380;9.820;2023-03-04T02:15:21;24.50;;;3.83;;
31786;SDS011;18356;52.380;9.820;2023-03-04T02:17:48;25.80;;;3.80;;
31786;SDS011;18356;52.380;9.820;2023-03-04T02:20:38;23.87;;;4.53;;
31786;SDS011;18356;52.380;9.820;2023-03-04T02:23:15;16.90;;;3.53;;
31786;SDS011;18356;52.380;9.820;2023-03-04T02:26:01;30.37;;;3.93;;
31786;SDS011;18356;52.380;9.820;2023-03-04T02:28:27;17.97;;;3.23;;
31786;SDS011;18356;52.380;9.820;2023-03-04T02:30:53;24.73;;;3.90;;
31786;SDS011;18356;52.380;9.820;2023-03-04T02:33:19;19.97;;;3.90;;
31786;SDS011;18356;52.380;9.820;2023-03-04T02:35:46;19.07;;;4.00;;
31786;SDS011;18356;52.380;9.820;2023-03-04T02:38:12;22.60;;;4.03;;
31786;SDS011;18356;52.380;9.820;2023-03-04T02:40:38;17.77;;;3.60;;
31786;SDS011;18356;52.380;9.820;2023-03-04T02:43:05;22.73;;;3.33;;
31786;SDS011;18356;52.380;9.820;2023-03-04T02:48:00;17.40;;;3.10;;
31786;SDS011;18356;52.380;9.820;2023-03-04T02:50:27;19.10;;;3.40;;
31786;SDS011;18356;52.380;9.820;2023-03-04T02:52:54;23.63;;;3.77;;
31786;SDS011;18356;52.380;9.820;2023-03-04T02:55:20;16.33;;;3.80;;
31786;SDS011;18356;52.380;9.820;2023-03-04T02:57:46;21.83;;;3.47;;
31786;SDS011;18356;52.380;9.820;2023-03-04T03:00:12;20.80;;;3.83;;
31786;SDS011;18356;52.380;9.820;2023-03-04T03:02:38;20.53;;;3.17;;
31786;SDS011;18356;52.380;9.820;2023-03-04T03:05:04;21.67;;;3.53;;
31786;SDS011;18356;52.380;9.820;2023-03-04T03:07:30;18.83;;;3.50;;
31786;SDS011;18356;52.380;9.820;2023-03-04T03:09:58;22.10;;;3.10;;
31786;SDS011;18356;52.380;9.820;2023-03-04T03:12:24;25.70;;;3.50;;
31786;SDS011;18356;52.380;9.820;2023-03-04T03:14:50;20.80;;;2.97;;
31786;SDS011;18356;52.380;9.820;2023-03-04T03:17:16;15.80;;;2.93;;
31786;SDS011;18356;52.380;9.820;2023-03-04T03:19:42;19.60;;;3.07;;
31786;SDS011;18356;52.380;9.820;2023-03-04T03:22:08;14.27;;;2.47;;
31786;SDS011;18356;52.380;9.820;2023-03-04T03:24:34;21.53;;;2.80;;
31786;SDS011;18356;52.380;9.820;2023-03-04T03:27:00;19.67;;;2.50;;
31786;SDS011;18356;52.380;9.820;2023-03-04T03:29:26;20.83;;;3.17;;
31786;SDS011;18356;52.380;9.820;2023-03-04T03:31:52;13.57;;;3.20;;
31786;SDS011;18356;52.380;9.820;2023-03-04T03:34:18;15.63;;;2.60;;
31786;SDS011;18356;52.380;9.820;2023-03-04T03:36:45;23.40;;;3.27;;
31786;SDS011;18356;52.380;9.820;2023-03-04T03:39:11;18.67;;;2.83;;
31786;SDS011;18356;52.380;9.820;2023-03-04T03:41:37;18.57;;;2.63;;
31786;SDS011;18356;52.380;9.820;2023-03-04T03:44:03;15.17;;;2.57;;
31786;SDS011;18356;52.380;9.820;2023-03-04T03:46:28;16.37;;;2.70;;
31786;SDS011;18356;52.380;9.820;2023-03-04T03:48:54;18.67;;;2.93;;
31786;SDS011;18356;52.380;9.820;2023-03-04T03:51:20;18.03;;;3.37;;
31786;SDS011;18356;52.380;9.820;2023-03-04T03:53:46;16.03;;;2.47;;
31786;SDS011;18356;52.380;9.820;2023-03-04T03:56:12;13.97;;;2.60;;
31786;SDS011;18356;52.380;9.820;2023-03-04T03:58:38;14.57;;;2.37;;
31786;SDS011;18356;52.380;9.820;2023-03-04T04:01:04;19.03;;;2.60;;
31786;SDS011;18356;52.380;9.820;2023-03-04T04:03:30;14.93;;;3.00;;
31786;SDS011;18356;52.380;9.820;2023-03-04T04:05:56;12.20;;;2.60;;
31786;SDS011;18356;52.380;9.820;2023-03-04T04:08:22;16.23;;;3.10;;
31786;SDS011;18356;52.380;9.820;2023-03-04T04:10:48;11.93;;;2.63;;
31786;SDS011;18356;52.380;9.820;2023-03-04T04:13:14;12.33;;;2.67;;
31786;SDS011;18356;52.380;9.820;2023-03-04T04:15:40;16.97;;;3.00;;
31786;SDS011;18356;52.380;9.820;2023-03-04T04:18:06;13.43;;;3.03;;
31786;SDS011;18356;52.380;9.820;2023-03-04T04:20:33;15.70;;;2.93;;
31786;SDS011;18356;52.380;9.820;2023-03-04T04:22:59;18.10;;;2.50;;
31786;SDS011;18356;52.380;9.820;2023-03-04T04:25:25;11.90;;;2.43;;
31786;SDS011;18356;52.380;9.820;2023-03-04T04:27:51;12.20;;;2.47;;
31786;SDS011;18356;52.380;9.820;2023-03-04T04:30:17;19.57;;;3.13;;
31786;SDS011;18356;52.380;9.820;2023-03-04T04:32:43;17.57;;;3.00;;
31786;SDS011;18356;52.380;9.820;2023-03-04T04:35:09;21.10;;;3.17;;
31786;SDS011;18356;52.380;9.820;2023-03-04T04:37:35;22.57;;;3.20;;
31786;SDS011;18356;52.380;9.820;2023-03-04T04:40:01;13.93;;;2.47;;
31786;SDS011;18356;52.380;9.820;2023-03-04T04:42:27;16.80;;;2.17;;
31786;SDS011;18356;52.380;9.820;2023-03-04T04:44:54;15.77;;;2.00;;
31786;SDS011;18356;52.380;9.820;2023-03-04T04:47:21;15.77;;;2.30;;
31786;SDS011;18356;52.380;9.820;2023-03-04T04:49:47;16.50;;;2.73;;
31786;SDS011;18356;52.380;9.820;2023-03-04T04:52:13;19.43;;;2.60;;
31786;SDS011;18356;52.380;9.820;2023-03-04T04:54:39;16.20;;;2.53;;
31786;SDS011;18356;52.380;9.820;2023-03-04T04:57:05;16.17;;;2.63;;
31786;SDS011;18356;52.380;9.820;2023-03-04T04:59:31;21.73;;;2.57;;
31786;SDS011;18356;52.380;9.820;2023-03-04T05:01:57;14.60;;;2.40;;
31786;SDS011;18356;52.380;9.820;2023-03-04T05:04:23;21.47;;;3.10;;
31786;SDS011;18356;52.380;9.820;2023-03-04T05:06:49;17.13;;;2.53;;
31786;SDS011;18356;52.380;9.820;2023-03-04T05:09:15;18.27;;;2.43;;
31786;SDS011;18356;52.380;9.820;2023-03-04T05:11:41;12.90;;;2.27;;
31786;SDS011;18356;52.380;9.820;2023-03-04T05:14:07;22.63;;;2.80;;
31786;SDS011;18356;52.380;9.820;2023-03-04T05:16:33;13.90;;;2.27;;
31786;SDS011;18356;52.380;9.820;2023-03-04T05:18:59;19.17;;;2.90;;
31786;SDS011;18356;52.380;9.820;2023-03-04T05:21:25;17.90;;;2.20;;
31786;SDS011;18356;52.380;9.820;2023-03-04T05:23:51;15.37;;;2.70;;
31786;SDS011;18356;52.380;9.820;2023-03-04T05:26:17;19.20;;;2.90;;
31786;SDS011;18356;52.380;9.820;2023-03-04T05:28:43;16.70;;;2.53;;
31786;SDS011;18356;52.380;9.820;2023-03-04T05:31:09;14.77;;;2.70;;
31786;SDS011;18356;52.380;9.820;2023-03-04T05:33:36;14.23;;;2.60;;
31786;SDS011;18356;52.380;9.820;2023-03-04T05:36:03;14.40;;;2.37;;
31786;SDS011;18356;52.380;9.820;2023-03-04T05:38:29;14.93;;;2.57;;
31786;SDS011;18356;52.380;9.820;2023-03-04T05:40:58;18.53;;;2.50;;
31786;SDS011;18356;52.380;9.820;2023-03-04T05:43:25;12.70;;;2.10;;
31786;SDS011;18356;52.380;9.820;2023-03-04T05:45:52;18.67;;;2.80;;
31786;SDS011;18356;52.380;9.820;2023-03-04T05:48:18;16.80;;;3.03;;
31786;SDS011;18356;52.380;9.820;2023-03-04T05:50:44;15.33;;;2.70;;
31786;SDS011;18356;52.380;9.820;2023-03-04T05:53:10;19.63;;;2.73;;
31786;SDS011;18356;52.380;9.820;2023-03-04T05:55:36;12.77;;;2.40;;
31786;SDS011;18356;52.380;9.820;2023-03-04T05:58:02;19.47;;;3.03;;
31786;SDS011;18356;52.380;9.820;2023-03-04T06:00:28;8.93;;;2.00;;
31786;SDS011;18356;52.380;9.820;2023-03-04T06:02:54;15.03;;;2.20;;
31786;SDS011;18356;52.380;9.820;2023-03-04T06:05:20;15.13;;;2.40;;
31786;SDS011;18356;52.380;9.820;2023-03-04T06:07:46;14.60;;;2.23;;
31786;SDS011;18356;52.380;9.820;2023-03-04T06:10:13;11.97;;;2.70;;
31786;SDS011;18356;52.380;9.820;2023-03-04T06:12:40;13.33;;;2.60;;
31786;SDS011;18356;52.380;9.820;2023-03-04T06:15:06;14.70;;;2.07;;
31786;SDS011;18356;52.380;9.820;2023-03-04T06:17:34;17.10;;;2.47;;
31786;SDS011;18356;52.380;9.820;2023-03-04T06:20:00;21.27;;;3.00;;
31786;SDS011;18356;52.380;9.820;2023-03-04T06:22:26;17.23;;;2.50;;
31786;SDS011;18356;52.380;9.820;2023-03-04T06:24:52;17.97;;;2.30;;
31786;SDS011;18356;52.380;9.820;2023-03-04T06:27:18;12.93;;;2.50;;
31786;SDS011;18356;52.380;9.820;2023-03-04T06:29:44;14.10;;;2.30;;
31786;SDS011;18356;52.380;9.820;2023-03-04T06:32:10;13.77;;;2.30;;
31786;SDS011;18356;52.380;9.820;2023-03-04T06:34:36;9.93;;;2.03;;
31786;SDS011;18356;52.380;9.820;2023-03-04T06:37:02;11.40;;;2.00;;
31786;SDS011;18356;52.380;9.820;2023-03-04T06:39:28;17.67;;;1.90;;
31786;SDS011;18356;52.380;9.820;2023-03-04T06:41:54;8.77;;;1.83;;
31786;SDS011;18356;52.380;9.820;2023-03-04T06:44:20;13.47;;;2.17;;
31786;SDS011;18356;52.380;9.820;2023-03-04T06:46:46;14.13;;;1.93;;
31786;SDS011;18356;52.380;9.820;2023-03-04T06:49:12;17.47;;;2.37;;
31786;SDS011;18356;52.380;9.820;2023-03-04T06:51:38;14.50;;;2.70;;
31786;SDS011;18356;52.380;9.820;2023-03-04T06:54:04;12.23;;;1.90;;
31786;SDS011;18356;52.380;9.820;2023-03-04T06:56:30;15.60;;;2.70;;
31786;SDS011;18356;52.380;9.820;2023-03-04T06:58:56;16.37;;;2.20;;
31786;SDS011;18356;52.380;9.820;2023-03-04T07:01:23;16.00;;;2.97;;
31786;SDS011;18356;52.380;9.820;2023-03-04T07:03:50;13.77;;;2.30;;
31786;SDS011;18356;52.380;9.820;2023-03-04T07:06:17;17.13;;;2.83;;
31786;SDS011;18356;52.380;9.820;2023-03-04T07:08:44;22.60;;;2.50;;
31786;SDS011;18356;52.380;9.820;2023-03-04T07:11:10;16.07;;;2.43;;
31786;SDS011;18356;52.380;9.820;2023-03-04T07:13:36;10.70;;;2.10;;
31786;SDS011;18356;52.380;9.820;2023-03-04T07:16:06;13.43;;;2.40;;
31786;SDS011;18356;52.380;9.820;2023-03-04T07:18:33;14.90;;;2.50;;
31786;SDS011;18356;52.380;9.820;2023-03-04T07:20:59;10.27;;;2.07;;
31786;SDS011;18356;52.380;9.820;2023-03-04T07:23:25;16.73;;;2.37;;
31786;SDS011;18356;52.380;9.820;2023-03-04T07:25:51;13.43;;;2.50;;
31786;SDS011;18356;52.380;9.820;2023-03-04T07:28:17;13.33;;;2.43;;
31786;SDS011;18356;52.380;9.820;2023-03-04T07:30:43;13.03;;;2.20;;
31786;SDS011;18356;52.380;9.820;2023-03-04T07:33:09;11.33;;;2.10;;
31786;SDS011;18356;52.380;9.820;2023-03-04T07:35:35;11.77;;;2.67;;
31786;SDS011;18356;52.380;9.820;2023-03-04T07:38:01;11.17;;;2.53;;
31786;SDS011;18356;52.380;9.820;2023-03-04T07:40:27;11.20;;;2.73;;
31786;SDS011;18356;52.380;9.820;2023-03-04T07:42:53;15.47;;;2.83;;
31786;SDS011;18356;52.380;9.820;2023-03-04T07:45:20;18.93;;;3.37;;
31786;SDS011;18356;52.380;9.820;2023-03-04T07:47:46;15.07;;;3.90;;
31786;SDS011;18356;52.380;9.820;2023-03-04T07:50:12;14.63;;;4.23;;
31786;SDS011;18356;52.380;9.820;2023-03-04T07:52:39;12.60;;;3.10;;
31786;SDS011;18356;52.380;9.820;2023-03-04T07:55:05;16.37;;;3.97;;
31786;SDS011;18356;52.380;9.820;2023-03-04T07:57:31;16.13;;;4.50;;
31786;SDS011;18356;52.380;9.820;2023-03-04T07:59:57;15.40;;;4.30;;
31786;SDS011;18356;52.380;9.820;2023-03-04T08:02:23;22.30;;;5.57;;
31786;SDS011;18356;52.380;9.820;2023-03-04T08:04:49;13.77;;;4.90;;
31786;SDS011;18356;52.380;9.820;2023-03-04T08:07:15;15.87;;;5.43;;
31786;SDS011;18356;52.380;9.820;2023-03-04T08:09:41;11.77;;;3.37;;
31786;SDS011;18356;52.380;9.820;2023-03-04T08:12:07;9.87;;;2.70;;
31786;SDS011;18356;52.380;9.820;2023-03-04T08:14:33;10.30;;;2.80;;
31786;SDS011;18356;52.380;9.820;2023-03-04T08:16:59;12.43;;;3.43;;
31786;SDS011;18356;52.380;9.820;2023-03-04T08:19:25;16.13;;;3.10;;
31786;SDS011;18356;52.380;9.820;2023-03-04T08:21:51;13.63;;;2.97;;
31786;SDS011;18356;52.380;9.820;2023-03-04T08:24:17;9.70;;;3.17;;
31786;SDS011;18356;52.380;9.820;2023-03-04T08:26:45;16.40;;;3.27;;
31786;SDS011;18356;52.380;9.820;2023-03-04T08:29:16;13.80;;;3.50;;
31786;SDS011;18356;52.380;9.820;2023-03-04T08:31:44;14.57;;;3.77;;
31786;SDS011;18356;52.380;9.820;2023-03-04T08:34:11;15.43;;;3.70;;
31786;SDS011;18356;52.380;9.820;2023-03-04T08:36:38;12.53;;;3.33;;
31786;SDS011;18356;52.380;9.820;2023-03-04T08:39:05;8.53;;;3.00;;
31786;SDS011;18356;52.380;9.820;2023-03-04T08:41:31;10.83;;;3.63;;
31786;SDS011;18356;52.380;9.820;2023-03-04T08:43:58;14.53;;;5.27;;
31786;SDS011;18356;52.380;9.820;2023-03-04T08:46:24;15.27;;;5.87;;
31786;SDS011;18356;52.380;9.820;2023-03-04T08:48:50;11.13;;;4.20;;
31786;SDS011;18356;52.380;9.820;2023-03-04T08:51:16;10.27;;;3.90;;
31786;SDS011;18356;52.380;9.820;2023-03-04T08:53:42;14.80;;;4.13;;
31786;SDS011;18356;52.380;9.820;2023-03-04T08:56:09;12.17;;;4.07;;
31786;SDS011;18356;52.380;9.820;2023-03-04T08:58:36;12.27;;;4.90;;
31786;SDS011;18356;52.380;9.820;2023-03-04T09:01:02;20.93;;;9.90;;
31786;SDS011;18356;52.380;9.820;2023-03-04T09:03:28;22.80;;;9.53;;
31786;SDS011;18356;52.380;9.820;2023-03-04T09:05:54;22.80;;;10.00;;
31786;SDS011;18356;52.380;9.820;2023-03-04T09:08:20;19.00;;;8.57;;
31786;SDS011;18356;52.380;9.820;2023-03-04T09:10:46;15.80;;;7.17;;
31786;SDS011;18356;52.380;9.820;2023-03-04T09:13:13;13.40;;;6.60;;
31786;SDS011;18356;52.380;9.820;2023-03-04T09:15:46;11.70;;;4.90;;
31786;SDS011;18356;52.380;9.820;2023-03-04T09:18:12;8.90;;;3.77;;
31786;SDS011;18356;52.380;9.820;2023-03-04T09:20:38;8.93;;;3.03;;
31786;SDS011;18356;52.380;9.820;2023-03-04T09:23:04;8.87;;;3.00;;
31786;SDS011;18356;52.380;9.820;2023-03-04T09:25:30;9.37;;;2.80;;
31786;SDS011;18356;52.380;9.820;2023-03-04T09:27:56;13.03;;;3.50;;
31786;SDS011;18356;52.380;9.820;2023-03-04T09:30:22;10.40;;;3.03;;
31786;SDS011;18356;52.380;9.820;2023-03-04T09:32:48;11.40;;;3.23;;
31786;SDS011;18356;52.380;9.820;2023-03-04T09:35:14;13.27;;;3.40;;
31786;SDS011;18356;52.380;9.820;2023-03-04T09:37:40;9.03;;;3.30;;
31786;SDS011;18356;52.380;9.820;2023-03-04T09:40:07;10.73;;;3.17;;
31786;SDS011;18356;52.380;9.820;2023-03-04T09:42:41;19.47;;;4.33;;
31786;SDS011;18356;52.380;9.820;2023-03-04T09:45:10;13.63;;;4.27;;
31786;SDS011;18356;52.380;9.820;2023-03-04T09:47:40;16.97;;;3.83;;
31786;SDS011;18356;52.380;9.820;2023-03-04T09:50:07;14.57;;;4.03;;
31786;SDS011;18356;52.380;9.820;2023-03-04T09:57:29;22.27;;;8.13;;
31786;SDS011;18356;52.380;9.820;2023-03-04T10:00:12;18.77;;;6.27;;
31786;SDS011;18356;52.380;9.820;2023-03-04T10:05:12;14.53;;;4.07;;
31786;SDS011;18356;52.380;9.820;2023-03-04T10:07:40;16.13;;;3.87;;
31786;SDS011;18356;52.380;9.820;2023-03-04T10:12:53;25.47;;;3.90;;
31786;SDS011;18356;52.380;9.820;2023-03-04T10:15:37;14.57;;;3.47;;
31786;SDS011;18356;52.380;9.820;2023-03-04T10:18:26;17.17;;;3.63;;
31786;SDS011;18356;52.380;9.820;2023-03-04T10:23:34;15.00;;;3.10;;
31786;SDS011;18356;52.380;9.820;2023-03-04T10:26:08;20.10;;;3.70;;
31786;SDS011;18356;52.380;9.820;2023-03-04T10:28:35;18.80;;;3.50;;
31786;SDS011;18356;52.380;9.820;2023-03-04T10:33:32;21.13;;;4.97;;
31786;SDS011;18356;52.380;9.820;2023-03-04T10:38:34;20.30;;;3.60;;
31786;SDS011;18356;52.380;9.820;2023-03-04T10:41:09;19.37;;;4.10;;
31786;SDS011;18356;52.380;9.820;2023-03-04T10:43:36;24.40;;;4.47;;
31786;SDS011;18356;52.380;9.820;2023-03-04T10:46:02;16.27;;;4.10;;
31786;SDS011;18356;52.380;9.820;2023-03-04T10:48:28;21.33;;;4.87;;
31786;SDS011;18356;52.380;9.820;2023-03-04T10:51:11;17.73;;;3.30;;
31786;SDS011;18356;52.380;9.820;2023-03-04T10:53:41;15.53;;;4.03;;
31786;SDS011;18356;52.380;9.820;2023-03-04T10:58:52;16.37;;;3.80;;
31786;SDS011;18356;52.380;9.820;2023-03-04T11:01:18;18.27;;;4.10;;
31786;SDS011;18356;52.380;9.820;2023-03-04T11:03:49;20.70;;;4.77;;
31786;SDS011;18356;52.380;9.820;2023-03-04T11:06:20;19.23;;;4.63;;
31786;SDS011;18356;52.380;9.820;2023-03-04T11:08:57;13.97;;;3.80;;
31786;SDS011;18356;52.380;9.820;2023-03-04T11:11:24;23.97;;;3.30;;
31786;SDS011;18356;52.380;9.820;2023-03-04T11:13:54;15.93;;;2.43;;
31786;SDS011;18356;52.380;9.820;2023-03-04T11:16:28;7.67;;;1.77;;
31786;SDS011;18356;52.380;9.820;2023-03-04T11:19:12;12.87;;;2.13;;
31786;SDS011;18356;52.380;9.820;2023-03-04T11:21:39;10.70;;;2.27;;
31786;SDS011;18356;52.380;9.820;2023-03-04T11:24:10;12.90;;;2.40;;
31786;SDS011;18356;52.380;9.820;2023-03-04T11:26:39;14.63;;;2.37;;
31786;SDS011;18356;52.380;9.820;2023-03-04T11:29:19;9.33;;;2.07;;
31786;SDS011;18356;52.380;9.820;2023-03-04T11:37:27;14.47;;;2.53;;
31786;SDS011;18356;52.380;9.820;2023-03-04T11:40:15;13.13;;;2.37;;
31786;SDS011;18356;52.380;9.820;2023-03-04T11:43:00;16.40;;;2.60;;
31786;SDS011;18356;52.380;9.820;2023-03-04T11:45:35;14.40;;;3.10;;
31786;SDS011;18356;52.380;9.820;2023-03-04T11:48:11;12.77;;;2.90;;
31786;SDS011;18356;52.380;9.820;2023-03-04T11:53:19;17.63;;;2.97;;
31786;SDS011;18356;52.380;9.820;2023-03-04T11:56:06;21.67;;;8.40;;
31786;SDS011;18356;52.380;9.820;2023-03-04T12:08:47;14.80;;;2.90;;
31786;SDS011;18356;52.380;9.820;2023-03-04T12:14:12;13.23;;;2.47;;
31786;SDS011;18356;52.380;9.820;2023-03-04T12:16:51;14.00;;;3.20;;
31786;SDS011;18356;52.380;9.820;2023-03-04T12:22:16;7.27;;;2.20;;
31786;SDS011;18356;52.380;9.820;2023-03-04T12:24:50;13.70;;;2.40;;
31786;SDS011;18356;52.380;9.820;2023-03-04T12:32:41;11.57;;;2.80;;
31786;SDS011;18356;52.380;9.820;2023-03-04T12:40:22;14.97;;;3.90;;
31786;SDS011;18356;52.380;9.820;2023-03-04T12:43:12;12.97;;;3.60;;
31786;SDS011;18356;52.380;9.820;2023-03-04T12:45:46;15.77;;;4.40;;
31786;SDS011;18356;52.380;9.820;2023-03-04T12:48:34;14.57;;;3.97;;
31786;SDS011;18356;52.380;9.820;2023-03-04T12:53:55;14.53;;;3.90;;
31786;SDS011;18356;52.380;9.820;2023-03-04T12:58:52;12.83;;;3.40;;
31786;SDS011;18356;52.380;9.820;2023-03-04T13:01:23;14.13;;;4.37;;
31786;SDS011;18356;52.380;9.820;2023-03-04T13:03:56;17.57;;;4.50;;
31786;SDS011;18356;52.380;9.820;2023-03-04T13:09:28;16.07;;;4.50;;
31786;SDS011;18356;52.380;9.820;2023-03-04T13:12:16;14.07;;;4.67;;
31786;SDS011;18356;52.380;9.820;2023-03-04T13:20:29;15.20;;;3.70;;
31786;SDS011;18356;52.380;9.820;2023-03-04T13:22:52;11.43;;;3.90;;
31786;SDS011;18356;52.380;9.820;2023-03-04T13:27:46;13.97;;;4.33;;
31786;SDS011;18356;52.380;9.820;2023-03-04T13:43:36;19.93;;;5.23;;
31786;SDS011;18356;52.380;9.820;2023-03-04T13:51:26;11.90;;;3.03;;
31786;SDS011;18356;52.380;9.820;2023-03-04T13:56:27;12.10;;;2.60;;
31786;SDS011;18356;52.380;9.820;2023-03-04T13:59:10;20.47;;;4.37;;
31786;SDS011;18356;52.380;9.820;2023-03-04T14:04:37;25.70;;;5.57;;
31786;SDS011;18356;52.380;9.820;2023-03-04T14:06:57;23.47;;;5.77;;
31786;SDS011;18356;52.380;9.820;2023-03-04T14:09:24;20.23;;;4.67;;
31786;SDS011;18356;52.380;9.820;2023-03-04T14:11:51;17.27;;;4.90;;
31786;SDS011;18356;52.380;9.820;2023-03-04T14:14:22;18.00;;;4.70;;
31786;SDS011;18356;52.380;9.820;2023-03-04T14:16:49;19.27;;;5.00;;
31786;SDS011;18356;52.380;9.820;2023-03-04T14:21:45;22.53;;;4.67;;
31786;SDS011;18356;52.380;9.820;2023-03-04T14:24:13;23.97;;;4.67;;
31786;SDS011;18356;52.380;9.820;2023-03-04T14:26:39;21.27;;;4.93;;
31786;SDS011;18356;52.380;9.820;2023-03-04T14:29:18;22.53;;;3.73;;
31786;SDS011;18356;52.380;9.820;2023-03-04T14:31:44;13.30;;;3.60;;
31786;SDS011;18356;52.380;9.820;2023-03-04T14:34:11;17.73;;;4.10;;
31786;SDS011;18356;52.380;9.820;2023-03-04T14:36:41;21.40;;;3.70;;
31786;SDS011;18356;52.380;9.820;2023-03-04T14:39:12;17.57;;;3.37;;
31786;SDS011;18356;52.380;9.820;2023-03-04T14:41:40;15.13;;;3.77;;
31786;SDS011;18356;52.380;9.820;2023-03-04T14:46:35;12.77;;;3.70;;
31786;SDS011;18356;52.380;9.820;2023-03-04T14:49:04;16.03;;;3.30;;
31786;SDS011;18356;52.380;9.820;2023-03-04T14:53:57;16.10;;;3.43;;
31786;SDS011;18356;52.380;9.820;2023-03-04T14:56:30;18.07;;;3.10;;
31786;SDS011;18356;52.380;9.820;2023-03-04T14:58:58;12.53;;;3.87;;
31786;SDS011;18356;52.380;9.820;2023-03-04T15:03:59;15.67;;;3.60;;
31786;SDS011;18356;52.380;9.820;2023-03-04T15:06:26;15.10;;;3.17;;
31786;SDS011;18356;52.380;9.820;2023-03-04T15:08:58;17.67;;;3.37;;
31786;SDS011;18356;52.380;9.820;2023-03-04T15:11:26;17.53;;;3.73;;
31786;SDS011;18356;52.380;9.820;2023-03-04T15:13:54;16.47;;;3.73;;
31786;SDS011;18356;52.380;9.820;2023-03-04T15:16:21;17.30;;;3.53;;
31786;SDS011;18356;52.380;9.820;2023-03-04T15:18:54;23.83;;;4.57;;
31786;SDS011;18356;52.380;9.820;2023-03-04T15:23:53;21.40;;;3.60;;
31786;SDS011;18356;52.380;9.820;2023-03-04T15:26:19;19.80;;;3.90;;
31786;SDS011;18356;52.380;9.820;2023-03-04T15:28:45;14.97;;;4.60;;
31786;SDS011;18356;52.380;9.820;2023-03-04T15:31:18;25.40;;;5.00;;
31786;SDS011;18356;52.380;9.820;2023-03-04T15:33:44;26.30;;;5.03;;
31786;SDS011;18356;52.380;9.820;2023-03-04T15:36:14;23.43;;;4.87;;
31786;SDS011;18356;52.380;9.820;2023-03-04T15:38:40;17.87;;;4.97;;
31786;SDS011;18356;52.380;9.820;2023-03-04T15:41:10;23.40;;;5.73;;
31786;SDS011;18356;52.380;9.820;2023-03-04T15:43:37;18.60;;;4.50;;
31786;SDS011;18356;52.380;9.820;2023-03-04T15:46:03;20.40;;;4.77;;
31786;SDS011;18356;52.380;9.820;2023-03-04T15:48:29;20.67;;;4.10;;
31786;SDS011;18356;52.380;9.820;2023-03-04T15:50:56;19.00;;;3.97;;
31786;SDS011;18356;52.380;9.820;2023-03-04T15:53:35;25.40;;;3.90;;
31786;SDS011;18356;52.380;9.820;2023-03-04T15:56:03;17.20;;;2.97;;
31786;SDS011;18356;52.380;9.820;2023-03-04T15:58:30;18.70;;;2.87;;
31786;SDS011;18356;52.380;9.820;2023-03-04T16:00:56;15.50;;;3.43;;
31786;SDS011;18356;52.380;9.820;2023-03-04T16:03:22;16.10;;;3.37;;
31786;SDS011;18356;52.380;9.820;2023-03-04T16:05:49;23.90;;;3.13;;
31786;SDS011;18356;52.380;9.820;2023-03-04T16:08:16;21.97;;;3.07;;
31786;SDS011;18356;52.380;9.820;2023-03-04T16:10:43;23.87;;;3.47;;
31786;SDS011;18356;52.380;9.820;2023-03-04T16:13:13;12.83;;;3.07;;
31786;SDS011;18356;52.380;9.820;2023-03-04T16:15:40;17.50;;;2.70;;
31786;SDS011;18356;52.380;9.820;2023-03-04T16:18:07;17.30;;;3.30;;
31786;SDS011;18356;52.380;9.820;2023-03-04T16:20:34;19.83;;;3.10;;
31786;SDS011;18356;52.380;9.820;2023-03-04T16:23:00;22.70;;;3.30;;
31786;SDS011;18356;52.380;9.820;2023-03-04T16:25:27;23.90;;;3.97;;
31786;SDS011;18356;52.380;9.820;2023-03-04T16:27:54;23.47;;;3.37;;
31786;SDS011;18356;52.380;9.820;2023-03-04T16:30:22;19.23;;;3.20;;